Youghal, Ireland
Current Conditions -  °F | °C
As of 4:00 AM on Saturday 22 Nov 2014 (Local Time) from EICK Reporting Station
Broken Clouds Broken Clouds  
Wind Chill: 50°   Ceiling: 700
Heat Index: 50°   Visibility: 6mi
Dew Point: 50°   Wind: 7mph
Humidity: 100%   Direction: 170°S
Pressure: 29.62"   Gusts: NA
Location:  51.95°N, 7.85°W
Report Text: EICK 220300Z 17006KT 9999 FEW002 BKN007 BKN012 10/10 Q1003 TEMPO 4000
Loading
Personal Weather Stations






























Interactive Weather Map New forecast layout! Learn more

10-Day Weather Forecast

Advertisements
Track Severe Weather on mobile